Time;durP1;ratioP1;P1;durP2;ratioP2;P2;SDS_P1;SDS_P2;PMS_P1;PMS_P2;Temp;Humidity;BMP_temperature;BMP_pressure;BME280_temperature;BME280_humidity;BME280_pressure;Samples;Min_cycle;Max_cycle;Signal;HPM_P1;HPM_P2
2021/09/13 00:00:37;;;;;;;2.88;0.88;;;;;;;17.06;100.00;100284.59;5115503;27;20396;-59
2021/09/13 00:03:40;;;;;;;1.95;1.05;;;;;;;17.02;100.00;100289.72;5114998;28;20161;-59
2021/09/13 00:06:45;;;;;;;1.20;0.65;;;;;;;16.97;100.00;100287.66;5115753;28;20042;-59
2021/09/13 00:09:47;;;;;;;4.05;0.65;;;;;;;16.95;100.00;100287.38;5113237;28;20637;-58
2021/09/13 00:12:51;;;;;;;1.42;0.57;;;;;;;16.40;100.00;100291.56;5115020;28;20113;-59
2021/09/13 00:15:53;;;;;;;5.15;1.10;;;;;;;15.72;100.00;100296.56;5115035;28;20070;-58
2021/09/13 00:18:56;;;;;;;8.63;1.00;;;;;;;16.74;100.00;100274.81;5115166;28;20131;-58
2021/09/13 00:21:59;;;;;;;2.40;1.30;;;;;;;16.86;100.00;100287.63;5114826;28;20404;-59
2021/09/13 00:25:03;;;;;;;2.45;1.40;;;;;;;16.94;100.00;100285.84;5102719;28;20097;-58
2021/09/13 00:28:06;;;;;;;3.30;1.30;;;;;;;16.71;100.00;100289.88;5094556;28;20121;-59
2021/09/13 00:31:10;;;;;;;1.48;0.43;;;;;;;16.67;100.00;100287.34;5094633;28;20105;-58
2021/09/13 00:34:14;;;;;;;3.60;1.52;;;;;;;16.61;100.00;100278.88;5094771;28;20416;-58
2021/09/13 00:37:17;;;;;;;2.85;0.95;;;;;;;16.56;100.00;100282.44;5106152;28;20082;-57
2021/09/13 00:40:20;;;;;;;2.50;0.73;;;;;;;16.47;100.00;100279.06;5114574;28;20503;-58
2021/09/13 00:43:22;;;;;;;2.20;1.02;;;;;;;16.59;100.00;100286.25;5114740;28;20058;-57
2021/09/13 00:46:25;;;;;;;3.35;1.23;;;;;;;16.58;100.00;100273.50;5113883;28;20047;-57
2021/09/13 00:49:28;;;;;;;1.60;0.57;;;;;;;16.54;100.00;100276.56;5114440;28;20042;-57
2021/09/13 00:52:31;;;;;;;0.88;0.88;;;;;;;16.57;100.00;100269.13;5114764;28;20495;-57
2021/09/13 00:55:34;;;;;;;2.47;0.45;;;;;;;16.51;100.00;100274.75;5114531;28;20039;-57
2021/09/13 00:58:37;;;;;;;0.47;0.35;;;;;;;16.48;100.00;100264.47;5114425;28;20147;-57
2021/09/13 01:01:40;;;;;;;2.42;1.00;;;;;;;16.48;100.00;100270.09;5114439;28;20092;-57
2021/09/13 01:04:43;;;;;;;2.25;0.47;;;;;;;16.48;100.00;100260.91;5114374;28;20043;-57
2021/09/13 01:07:46;;;;;;;1.27;0.55;;;;;;;16.46;100.00;100260.63;5112760;28;20047;-56
2021/09/13 01:10:52;;;;;;;2.95;0.98;;;;;;;16.07;100.00;100257.66;5113800;28;20097;-57
2021/09/13 01:13:55;;;;;;;4.47;1.05;;;;;;;15.97;100.00;100259.16;5113663;28;20046;-57
2021/09/13 01:16:57;;;;;;;4.05;0.70;;;;;;;15.85;100.00;100255.50;5112860;28;20051;-57
2021/09/13 01:20:01;;;;;;;3.60;0.63;;;;;;;16.07;100.00;100254.84;5114207;28;20128;-57
2021/09/13 01:23:16;;;;;;;0.65;0.30;;;;;;;16.13;100.00;100249.28;5112907;28;20400;-57
2021/09/13 01:26:20;;;;;;;1.25;0.60;;;;;;;15.62;100.00;100247.47;5114135;28;20046;-57
2021/09/13 01:29:23;;;;;;;0.70;0.52;;;;;;;15.52;100.00;100254.53;5113832;28;20049;-57
2021/09/13 01:32:26;;;;;;;6.85;1.05;;;;;;;15.41;100.00;100258.00;5113843;28;20093;-57
2021/09/13 01:35:28;;;;;;;1.25;0.28;;;;;;;15.24;100.00;100253.53;5113899;28;20144;-57
2021/09/13 01:38:32;;;;;;;2.45;0.52;;;;;;;15.16;100.00;100253.97;5113696;28;20123;-57
2021/09/13 01:41:35;;;;;;;1.65;1.00;;;;;;;15.30;100.00;100251.53;5113965;28;20069;-57
2021/09/13 01:44:37;;;;;;;1.52;0.82;;;;;;;16.05;100.00;100239.81;5113151;28;20054;-57
2021/09/13 01:47:41;;;;;;;1.33;0.68;;;;;;;16.15;100.00;100230.66;5099633;28;20507;-56
2021/09/13 01:50:44;;;;;;;0.52;0.52;;;;;;;16.13;100.00;100232.41;5112607;28;20108;-57
2021/09/13 01:53:47;;;;;;;2.15;1.13;;;;;;;16.13;100.00;100227.56;5113750;28;20051;-56
2021/09/13 01:56:50;;;;;;;1.35;0.60;;;;;;;15.99;100.00;100222.91;5113517;28;20091;-57
2021/09/13 01:59:53;;;;;;;2.45;0.73;;;;;;;16.01;100.00;100225.97;5113538;28;20089;-57
2021/09/13 02:02:56;;;;;;;0.85;0.30;;;;;;;16.02;100.00;100233.16;5093425;28;20122;-57
2021/09/13 02:05:58;;;;;;;2.00;0.68;;;;;;;16.01;100.00;100231.59;5093250;28;20119;-57
2021/09/13 02:09:01;;;;;;;1.77;0.93;;;;;;;16.01;100.00;100225.97;5092618;28;20434;-57
2021/09/13 02:12:04;;;;;;;2.38;0.82;;;;;;;16.01;100.00;100225.97;5092482;28;20119;-57
2021/09/13 02:15:08;;;;;;;1.05;0.20;;;;;;;16.14;100.00;100228.31;5092932;28;20443;-57
2021/09/13 02:18:11;;;;;;;2.38;1.23;;;;;;;16.10;100.00;100228.56;5092953;28;20047;-57
2021/09/13 02:21:14;;;;;;;2.08;0.45;;;;;;;16.11;100.00;100223.72;5092870;28;20110;-57
2021/09/13 02:24:16;;;;;;;3.38;1.00;;;;;;;16.08;100.00;100219.88;5093058;28;20043;-56
2021/09/13 02:27:19;;;;;;;2.72;0.55;;;;;;;16.05;100.00;100226.50;5092932;28;20394;-57
2021/09/13 02:30:22;;;;;;;19.65;1.50;;;;;;;16.01;100.00;100219.59;5092710;28;20047;-53
2021/09/13 02:33:26;;;;;;;2.38;0.95;;;;;;;16.03;100.00;100219.84;5093091;28;20047;-53
2021/09/13 02:36:29;;;;;;;2.90;0.93;;;;;;;16.02;100.00;100218.31;5096809;28;20165;-53
2021/09/13 02:39:31;;;;;;;0.88;0.55;;;;;;;15.91;100.00;100219.81;5084155;28;20097;-53
2021/09/13 02:42:35;;;;;;;2.15;0.63;;;;;;;16.01;100.00;100211.94;5096529;28;20093;-53
2021/09/13 02:45:38;;;;;;;1.52;0.50;;;;;;;15.95;100.00;100213.94;5096550;28;20545;-52
2021/09/13 02:48:41;;;;;;;2.75;0.82;;;;;;;15.89;100.00;100201.94;5095728;28;20046;-52
2021/09/13 02:51:44;;;;;;;1.40;0.77;;;;;;;15.96;100.00;100212.66;5096240;28;20043;-53
2021/09/13 02:54:47;;;;;;;1.08;0.60;;;;;;;16.00;100.00;100210.41;5095926;28;20135;-52
2021/09/13 02:57:50;;;;;;;1.65;0.43;;;;;;;16.08;100.00;100208.66;5107703;28;20042;-52
2021/09/13 03:00:52;;;;;;;2.42;0.73;;;;;;;16.07;100.00;100198.66;5083768;28;20097;-53
2021/09/13 03:03:55;;;;;;;4.20;0.40;;;;;;;16.10;100.00;100199.69;5096331;28;20063;-53
2021/09/13 03:06:58;;;;;;;1.38;0.57;;;;;;;15.97;100.00;100196.59;5096024;28;20055;-53
2021/09/13 03:10:01;;;;;;;3.72;0.70;;;;;;;15.89;100.00;100197.09;5095982;28;20047;-53
2021/09/13 03:13:04;;;;;;;4.20;0.82;;;;;;;15.86;100.00;100197.31;5096201;28;20062;-53
2021/09/13 03:16:07;;;;;;;2.90;1.02;;;;;;;15.99;100.00;100194.81;5096147;28;20062;-53
2021/09/13 03:19:10;;;;;;;2.63;0.93;;;;;;;15.98;100.00;100193.28;5096235;28;20043;-52
2021/09/13 03:22:13;;;;;;;2.30;0.63;;;;;;;15.80;100.00;100199.31;5098999;28;20034;-53
2021/09/13 03:25:16;;;;;;;6.05;1.05;;;;;;;15.78;100.00;100190.63;5116383;28;20050;-53
2021/09/13 03:28:19;;;;;;;2.88;0.43;;;;;;;15.76;100.00;100188.34;5116621;28;20042;-53
2021/09/13 03:31:22;;;;;;;0.60;0.60;;;;;;;16.03;100.00;100184.09;5116020;28;20047;-53
2021/09/13 03:34:24;;;;;;;0.85;0.75;;;;;;;15.98;100.00;100182.06;5114463;28;20062;-53
2021/09/13 03:37:27;;;;;;;2.38;1.27;;;;;;;16.10;100.00;100178.00;5115742;28;20145;-53
2021/09/13 03:40:30;;;;;;;2.10;1.67;;;;;;;16.27;100.00;100164.75;5115448;28;20038;-53
2021/09/13 03:43:33;;;;;;;2.63;0.70;;;;;;;16.23;100.00;100163.47;5115383;28;20043;-53
2021/09/13 03:46:36;;;;;;;1.40;0.80;;;;;;;16.25;100.00;100161.69;5114341;28;20042;-53
2021/09/13 03:49:38;;;;;;;3.75;1.13;;;;;;;16.12;100.00;100163.44;5115527;28;20530;-53
2021/09/13 03:52:41;;;;;;;6.72;0.63;;;;;;;16.06;100.00;100171.84;5115354;28;20395;-53
2021/09/13 03:55:44;;;;;;;1.50;0.60;;;;;;;16.08;100.00;100174.16;5114478;28;20070;-53
2021/09/13 03:58:47;;;;;;;1.75;0.95;;;;;;;16.35;100.00;100171.41;5098107;28;20053;-53
2021/09/13 04:01:50;;;;;;;0.85;0.32;;;;;;;16.32;100.00;100166.81;5115504;28;20039;-53
2021/09/13 04:04:53;;;;;;;4.13;0.63;;;;;;;16.41;100.00;100171.44;5113177;28;20087;-53
2021/09/13 04:08:10;;;;;;;2.50;0.70;;;;;;;15.06;100.00;100176.88;5102283;28;20074;-53
2021/09/13 04:14:27;;;;;;;7.55;0.50;;;;;;;14.99;100.00;100176.56;5115033;28;20537;-53
2021/09/13 04:17:30;;;;;;;3.13;0.77;;;;;;;14.99;100.00;100188.56;5114421;28;20123;-53
2021/09/13 04:20:33;;;;;;;2.03;0.88;;;;;;;14.92;100.00;100191.81;5100769;28;20050;-53
2021/09/13 04:23:37;;;;;;;2.00;1.10;;;;;;;14.96;100.00;100189.56;5114352;28;20138;-52
2021/09/13 04:26:40;;;;;;;1.33;0.80;;;;;;;15.19;100.00;100179.28;5114275;28;20403;-53
2021/09/13 04:29:43;;;;;;;1.80;1.17;;;;;;;14.07;100.00;100189.91;5114878;28;20085;-53
2021/09/13 04:32:46;;;;;;;1.73;0.85;;;;;;;13.69;100.00;100197.31;5113387;28;20046;-53
2021/09/13 04:35:49;;;;;;;1.77;0.63;;;;;;;13.61;100.00;100190.59;5114436;28;20038;-53
2021/09/13 04:38:52;;;;;;;2.78;0.63;;;;;;;13.58;100.00;100197.16;5114880;28;20095;-53
2021/09/13 04:41:55;;;;;;;2.60;0.65;;;;;;;13.59;100.00;100212.72;5113168;28;20074;-53
2021/09/13 04:44:58;;;;;;;0.50;0.47;;;;;;;13.80;100.00;100201.50;5114648;28;20039;-53
2021/09/13 04:48:01;;;;;;;0.20;0.20;;;;;;;13.69;100.00;100196.53;5114921;28;20046;-52
2021/09/13 04:51:04;;;;;;;3.28;0.95;;;;;;;13.72;100.00;100197.59;5114631;28;20427;-53
2021/09/13 04:54:07;;;;;;;0.85;0.20;;;;;;;13.75;100.00;100191.81;5114060;28;20046;-52
2021/09/13 04:57:09;;;;;;;4.28;1.17;;;;;;;13.84;100.00;100190.91;5112861;28;20100;-53
2021/09/13 05:00:14;;;;;;;1.63;0.30;;;;;;;13.81;100.00;100198.25;5114445;28;20038;-52
2021/09/13 05:03:17;;;;;;;1.08;0.60;;;;;;;13.85;100.00;100195.22;5114279;28;20200;-53
2021/09/13 05:06:20;;;;;;;3.78;0.75;;;;;;;13.83;100.00;100194.94;5114309;28;20499;-52
2021/09/13 05:09:22;;;;;;;1.50;0.55;;;;;;;13.96;100.00;100198.16;5114120;28;20120;-53
2021/09/13 05:12:25;;;;;;;2.10;0.90;;;;;;;14.31;100.00;100184.88;5101547;28;20039;-53
2021/09/13 05:15:28;;;;;;;2.55;0.98;;;;;;;14.46;100.00;100185.53;5114467;28;20395;-53
2021/09/13 05:18:31;;;;;;;0.80;0.70;;;;;;;14.71;100.00;100190.34;5114352;28;20081;-52
2021/09/13 05:21:38;;;;;;;2.63;1.02;;;;;;;14.80;100.00;100187.38;5093530;28;20115;-53
2021/09/13 05:24:41;;;;;;;3.35;0.50;;;;;;;14.27;100.00;100190.63;5093508;28;20042;-52
2021/09/13 05:27:44;;;;;;;2.28;0.60;;;;;;;14.13;100.00;100190.72;5093507;28;20071;-53
2021/09/13 05:30:48;;;;;;;4.20;0.88;;;;;;;14.03;100.00;100192.94;5093291;28;20043;-52
2021/09/13 05:33:52;;;;;;;7.18;1.15;;;;;;;14.54;100.00;100185.84;5093323;28;20443;-53
2021/09/13 05:36:55;;;;;;;1.83;1.17;;;;;;;14.65;100.00;100183.16;5093335;28;20431;-53
2021/09/13 05:39:58;;;;;;;3.60;1.35;;;;;;;14.59;100.00;100183.13;5104528;28;20055;-52
2021/09/13 05:43:04;;;;;;;5.97;1.30;;;;;;;14.63;100.00;100189.25;5093604;28;20425;-52
2021/09/13 05:46:07;;;;;;;3.72;1.05;;;;;;;14.92;100.00;100188.25;5093353;28;20047;-53
2021/09/13 05:49:10;;;;;;;2.80;1.13;;;;;;;15.00;100.00;100180.91;5093203;28;20222;-53
2021/09/13 05:52:13;;;;;;;5.95;0.95;;;;;;;14.75;100.00;100188.09;5092864;28;20047;-53
2021/09/13 05:55:16;;;;;;;3.30;1.35;;;;;;;14.81;100.00;100193.75;5112142;28;20046;-53
2021/09/13 05:58:19;;;;;;;2.33;0.80;;;;;;;14.80;100.00;100195.78;5112572;28;20560;-52
2021/09/13 06:01:22;;;;;;;1.48;0.52;;;;;;;14.88;100.00;100196.88;5113509;28;20043;-53
2021/09/13 06:04:28;;;;;;;2.95;0.65;;;;;;;14.71;100.00;100195.97;5112586;28;20131;-52
2021/09/13 06:07:31;;;;;;;4.88;2.13;;;;;;;15.06;100.00;100193.72;5112006;28;20383;-52
2021/09/13 06:10:34;;;;;;;10.15;1.02;;;;;;;15.15;100.00;100187.94;5117188;28;20039;-53
2021/09/13 06:13:37;;;;;;;2.40;1.05;;;;;;;15.03;100.00;100193.94;5117283;28;20100;-52
2021/09/13 06:16:40;;;;;;;3.85;1.02;;;;;;;15.17;100.00;100193.03;5117337;28;20074;-53
2021/09/13 06:19:46;;;;;;;2.40;1.02;;;;;;;15.08;100.00;100208.00;5117557;28;20116;-53
2021/09/13 06:22:49;;;;;;;7.15;1.98;;;;;;;15.17;100.00;100193.81;5117223;28;20095;-53
2021/09/13 06:25:52;;;;;;;3.13;1.48;;;;;;;15.28;100.00;100203.56;5116224;28;20050;-53
2021/09/13 06:28:55;;;;;;;4.32;1.67;;;;;;;15.22;100.00;100199.97;5117055;28;20140;-53
2021/09/13 06:31:58;;;;;;;6.20;1.67;;;;;;;15.25;100.00;100213.75;5116935;28;20527;-53
2021/09/13 06:35:00;;;;;;;12.10;2.55;;;;;;;15.25;100.00;100205.31;5116402;28;20097;-53
2021/09/13 06:38:04;;;;;;;7.25;1.23;;;;;;;15.88;100.00;100206.78;5115432;28;20054;-53
2021/09/13 06:41:07;;;;;;;3.63;1.40;;;;;;;16.44;100.00;100207.72;5116713;28;20107;-53
2021/09/13 06:44:10;;;;;;;5.68;1.48;;;;;;;16.57;100.00;100210.84;5117331;28;20043;-53
2021/09/13 06:47:22;;;;;;;3.05;1.45;;;;;;;16.72;100.00;100202.19;5116950;28;20112;-53
2021/09/13 06:50:28;;;;;;;5.13;1.30;;;;;;;16.97;100.00;100203.22;5116593;28;20119;-53
2021/09/13 06:53:31;;;;;;;3.10;1.15;;;;;;;16.64;100.00;100209.59;5116391;28;20055;-53
2021/09/13 06:56:34;;;;;;;6.63;2.58;;;;;;;16.38;100.00;100215.38;5102443;28;20034;-53
2021/09/13 06:59:37;;;;;;;7.43;1.95;;;;;;;16.66;100.00;100212.66;5116014;28;20039;-53
2021/09/13 07:02:42;;;;;;;3.90;2.22;;;;;;;16.86;100.00;100215.25;5116110;28;20045;-53
2021/09/13 07:05:45;;;;;;;1.92;1.40;;;;;;;15.99;100.00;100217.28;5115996;28;20482;-53
2021/09/13 07:08:48;;;;;;;3.58;1.60;;;;;;;15.20;100.00;100231.31;5115986;28;20112;-53
2021/09/13 07:11:51;;;;;;;8.70;2.40;;;;;;;15.32;100.00;100235.75;5116301;28;20053;-53
2021/09/13 07:14:54;;;;;;;1.38;0.55;;;;;;;15.27;100.00;100227.28;5116354;28;20058;-52
2021/09/13 07:17:58;;;;;;;2.75;1.35;;;;;;;15.30;100.00;100229.09;5116320;28;20051;-52
2021/09/13 07:21:02;;;;;;;4.45;1.73;;;;;;;15.68;100.00;100228.63;5114982;28;20518;-53
2021/09/13 07:24:04;;;;;;;5.35;1.27;;;;;;;15.85;100.00;100218.25;5086051;28;20043;-53
2021/09/13 07:27:07;;;;;;;2.45;1.20;;;;;;;16.09;100.00;100221.41;5095781;28;20050;-52
2021/09/13 07:30:12;;;;;;;8.07;0.75;;;;;;;16.03;100.00;100223.44;5095716;28;20047;-53
2021/09/13 07:33:15;;;;;;;4.10;0.95;;;;;;;16.00;100.00;100218.84;5095626;28;20085;-52
2021/09/13 07:36:18;;;;;;;2.70;1.83;;;;;;;16.18;100.00;100224.00;5082709;28;20564;-53
2021/09/13 07:39:26;;;;;;;3.70;1.20;;;;;;;16.34;100.00;100214.88;5095062;28;20077;-53
2021/09/13 07:42:32;;;;;;;5.45;1.40;;;;;;;16.79;100.00;100212.16;5194757;22;20079;-55
2021/09/13 07:45:37;;;;;;;6.75;1.52;;;;;;;16.67;100.00;100214.97;5054327;28;20040;-55
2021/09/13 07:48:40;;;;;;;4.22;1.20;;;;;;;16.62;100.00;100217.78;5054781;28;20400;-55
2021/09/13 07:51:43;;;;;;;16.88;2.50;;;;;;;16.75;100.00;100214.47;5034800;28;20073;-55
2021/09/13 07:54:45;;;;;;;9.55;2.05;;;;;;;17.30;100.00;100220.13;5050443;28;20145;-55
2021/09/13 07:57:48;;;;;;;8.98;1.85;;;;;;;17.24;100.00;100228.56;5054729;28;20044;-55
2021/09/13 08:00:55;;;;;;;6.60;1.50;;;;;;;16.35;100.00;100226.88;5054030;28;20052;-55
2021/09/13 08:03:58;;;;;;;3.30;1.80;;;;;;;16.99;100.00;100223.19;5033518;28;20112;-54
2021/09/13 08:07:01;;;;;;;1.30;0.77;;;;;;;16.81;100.00;100229.28;5041551;28;20052;-55
2021/09/13 08:10:05;;;;;;;1.15;1.10;;;;;;;16.20;100.00;100232.69;5054391;28;20106;-56
2021/09/13 08:13:08;;;;;;;1.42;1.15;;;;;;;16.23;100.00;100231.69;5053542;28;20048;-55
2021/09/13 08:16:12;;;;;;;2.95;1.20;;;;;;;16.31;100.00;100229.91;5053543;28;20063;-55
2021/09/13 08:19:15;;;;;;;2.05;1.00;;;;;;;16.35;100.00;100232.50;5050917;28;20072;-55
2021/09/13 08:22:18;;;;;;;1.20;0.43;;;;;;;16.36;100.00;100234.03;5053660;28;20122;-55
2021/09/13 08:25:21;;;;;;;5.35;1.23;;;;;;;16.25;100.00;100239.59;5053659;28;20102;-56
2021/09/13 08:28:24;;;;;;;1.33;0.68;;;;;;;16.22;100.00;100235.75;5054218;28;20099;-55
2021/09/13 08:31:27;;;;;;;7.55;1.65;;;;;;;16.15;100.00;100241.88;5054103;28;20394;-55
2021/09/13 08:34:30;;;;;;;2.13;1.30;;;;;;;16.12;100.00;100242.88;5071490;28;20090;-55
2021/09/13 08:37:32;;;;;;;2.80;1.00;;;;;;;16.14;100.00;100239.56;5054301;28;20087;-55
2021/09/13 08:40:35;;;;;;;2.00;1.08;;;;;;;16.14;100.00;100240.34;5053473;28;20036;-56
2021/09/13 08:43:40;;;;;;;2.67;0.70;;;;;;;16.13;100.00;100238.81;5053281;28;20067;-55
2021/09/13 08:46:49;;;;;;;3.05;1.48;;;;;;;16.18;100.00;100235.25;5054143;28;20114;-55
2021/09/13 08:50:00;;;;;;;4.25;1.55;;;;;;;16.13;100.00;100244.44;5054363;28;20056;-56
2021/09/13 08:53:04;;;;;;;;;;;;;;;16.20;100.00;100235.50;5053868;28;20083;-54
2021/09/13 08:56:13;;;;;;;2.63;0.65;;;;;;;16.51;100.00;100235.38;5054330;28;19958;-56
2021/09/13 08:59:17;;;;;;;5.47;1.58;;;;;;;16.97;100.00;100237.00;5054028;28;20043;-55
2021/09/13 09:02:20;;;;;;;3.53;1.52;;;;;;;17.12;100.00;100229.84;5053755;28;20547;-55
2021/09/13 09:05:24;;;;;;;4.03;0.95;;;;;;;17.25;100.00;100226.50;5075558;28;20203;-55
2021/09/13 09:08:32;;;;;;;7.43;1.27;;;;;;;17.04;100.00;100230.88;5045686;28;20118;-55
2021/09/13 09:12:01;;;;;;;2.22;0.52;;;;;;;17.14;100.00;100232.16;5053807;28;20080;-55
2021/09/13 09:15:06;;;;;;;5.78;1.23;;;;;;;17.39;100.00;100225.47;5053676;28;20043;-55
2021/09/13 09:18:09;;;;;;;3.45;1.50;;;;;;;17.71;100.00;100221.09;5053668;28;20476;-55
2021/09/13 09:21:26;;;;;;;3.50;1.50;;;;;;;17.94;100.00;100228.22;5053538;28;20044;-55
2021/09/13 09:24:37;;;;;;;2.60;0.50;;;;;;;17.95;100.00;100224.09;5052610;28;20484;-55
2021/09/13 09:27:57;;;;;;;;;;;;;;;17.93;100.00;100229.47;5053764;28;20087;-55
2021/09/13 09:31:00;;;;;;;3.80;1.45;;;;;;;17.69;100.00;100218.03;5052468;28;20280;-55
2021/09/13 09:34:17;;;;;;;6.28;1.17;;;;;;;18.07;100.00;100219.19;5053267;28;20052;-55
2021/09/13 09:37:24;;;;;;;5.68;1.85;;;;;;;18.26;100.00;100213.75;5053351;28;20044;-55
2021/09/13 09:40:29;;;;;;;4.75;1.45;;;;;;;18.29;100.00;100212.69;5033282;28;20515;-55
2021/09/13 09:43:51;;;;;;;8.98;1.92;;;;;;;18.58;100.00;100212.06;5031734;28;20060;-55
2021/09/13 09:47:01;;;;;;;6.50;2.05;;;;;;;18.81;100.00;100199.31;5032326;28;20543;-56
2021/09/13 09:50:05;;;;;;;6.95;1.80;;;;;;;18.86;100.00;100187.22;5032681;28;20129;-55
2021/09/13 09:53:16;;;;;;;7.43;1.70;;;;;;;19.02;100.00;100183.50;5045749;28;20500;-55
2021/09/13 09:56:19;;;;;;;6.90;2.08;;;;;;;19.43;100.00;100172.88;5053142;28;20487;-55
2021/09/13 09:59:21;;;;;;;4.15;1.25;;;;;;;19.56;100.00;100170.16;5053427;28;20075;-56
2021/09/13 10:02:27;;;;;;;4.88;2.13;;;;;;;19.86;100.00;100158.75;5052552;28;20085;-55
2021/09/13 10:05:31;;;;;;;6.18;1.50;;;;;;;19.78;100.00;100163.50;5052891;28;20124;-56
2021/09/13 10:08:34;;;;;;;2.88;0.80;;;;;;;19.91;100.00;100162.81;5052817;28;20503;-56
2021/09/13 10:11:42;;;;;;;5.28;1.65;;;;;;;20.17;100.00;100160.16;5052680;28;20060;-55
2021/09/13 10:14:45;;;;;;;3.92;0.77;;;;;;;20.42;100.00;100158.84;5051882;28;20047;-55
2021/09/13 10:17:48;;;;;;;2.10;0.82;;;;;;;20.19;100.00;100160.41;5052630;28;20087;-57
2021/09/13 10:20:52;;;;;;;1.65;0.28;;;;;;;19.96;100.00;100145.81;5052863;28;20072;-56
2021/09/13 10:23:55;;;;;;;1.17;0.43;;;;;;;19.89;100.00;100152.06;5052594;28;20079;-55
2021/09/13 10:27:07;;;;;;;1.88;0.32;;;;;;;19.99;100.00;100158.13;5052876;28;20496;-56
2021/09/13 10:30:10;;;;;;;2.80;0.32;;;;;;;19.99;100.00;100143.97;5052757;28;20090;-56
2021/09/13 10:33:12;;;;;;;1.95;0.85;;;;;;;20.16;100.00;100141.69;5010101;28;20052;-50
2021/09/13 10:36:15;;;;;;;0.63;0.40;;;;;;;20.76;100.00;100144.94;5012791;28;20049;-50
2021/09/13 10:39:56;;;;;;;1.27;0.30;;;;;;;20.93;100.00;100134.09;5013042;28;20488;-50
2021/09/13 10:43:18;;;;;;;4.72;0.60;;;;;;;21.31;100.00;100134.75;5012537;28;20107;-51
2021/09/13 10:46:59;;;;;;;1.80;0.57;;;;;;;21.52;100.00;100127.13;5013154;28;20493;-51
2021/09/13 10:50:15;;;;;;;3.00;0.30;;;;;;;21.84;100.00;100127.78;5012664;28;20092;-50
2021/09/13 10:53:18;;;;;;;1.13;0.43;;;;;;;22.15;100.00;100118.34;5012109;28;20077;-51
2021/09/13 10:56:24;;;;;;;2.08;0.70;;;;;;;22.60;100.00;100115.25;5015646;28;20120;-51
2021/09/13 10:59:43;;;;;;;1.65;0.73;;;;;;;22.70;100.00;100113.44;5004111;28;20056;-50
2021/09/13 11:06:38;;;;;;;0.10;0.10;;;;;;;22.44;100.00;100122.81;5016365;28;20048;-51
2021/09/13 11:09:41;;;;;;;1.83;0.10;;;;;;;22.49;100.00;100110.59;5015474;28;20069;-51
2021/09/13 11:12:43;;;;;;;0.50;0.10;;;;;;;22.47;100.00;100113.22;5024070;28;20053;-51
2021/09/13 11:15:48;;;;;;;0.15;0.10;;;;;;;21.89;100.00;100115.56;5015357;28;20049;-50
2021/09/13 11:18:51;;;;;;;0.57;0.40;;;;;;;21.25;100.00;100100.06;5015202;28;20133;-50
2021/09/13 11:22:06;;;;;;;0.85;0.15;;;;;;;22.01;100.00;100102.66;5015638;28;20046;-50
2021/09/13 11:25:10;;;;;;;2.15;0.10;;;;;;;21.10;100.00;100095.72;5015946;28;20088;-50
2021/09/13 11:28:12;;;;;;;0.95;0.17;;;;;;;21.01;100.00;100087.59;5014875;28;20041;-50
2021/09/13 11:31:38;;;;;;;6.72;0.80;;;;;;;20.83;100.00;100091.28;5014930;28;20053;-50
2021/09/13 11:34:46;;;;;;;9.80;0.50;;;;;;;20.79;100.00;100090.81;5014403;28;20757;-51
2021/09/13 11:37:58;;;;;;;0.32;0.10;;;;;;;20.69;100.00;100080.44;5014754;28;20045;-51
2021/09/13 11:41:14;;;;;;;4.03;0.32;;;;;;;20.69;100.00;100084.06;5014865;28;20116;-50
2021/09/13 11:44:17;;;;;;;1.17;0.17;;;;;;;20.38;100.00;100096.88;5014238;28;20036;-50
2021/09/13 11:47:22;;;;;;;0.70;0.17;;;;;;;20.25;100.00;100096.06;5014860;28;20080;-50
2021/09/13 11:50:25;;;;;;;0.10;0.05;;;;;;;20.49;100.00;100098.78;5015114;28;20049;-50
2021/09/13 11:53:28;;;;;;;1.58;0.50;;;;;;;20.87;100.00;100097.38;5012984;28;20525;-50
2021/09/13 11:56:31;;;;;;;0.45;0.22;;;;;;;20.83;100.00;100088.47;5013117;28;20045;-51
2021/09/13 11:59:34;;;;;;;0.65;0.35;;;;;;;20.27;100.00;100093.47;4982839;28;20553;-50
2021/09/13 12:02:40;;;;;;;0.22;0.10;;;;;;;19.76;100.00;100081.31;4995583;28;20049;-51
2021/09/13 12:05:43;;;;;;;0.20;0.20;;;;;;;19.39;100.00;100084.06;5012748;28;20052;-48
2021/09/13 12:08:47;;;;;;;0.68;0.40;;;;;;;19.51;100.00;100077.75;5014601;28;20049;-50
2021/09/13 12:11:50;;;;;;;0.30;0.10;;;;;;;19.59;100.00;100077.94;5024925;28;20048;-50
2021/09/13 12:14:59;;;;;;;0.73;0.35;;;;;;;19.63;100.00;100070.69;5015136;28;20091;-50
2021/09/13 12:18:05;;;;;;;1.42;0.50;;;;;;;19.68;100.00;100069.81;5015069;28;20493;-50
2021/09/13 12:21:18;;;;;;;3.83;0.63;;;;;;;19.70;100.00;100065.72;5011894;28;20044;-51
2021/09/13 12:24:24;;;;;;;;;;;;;;;19.88;100.00;100060.06;5011249;28;20049;-51
2021/09/13 12:27:28;;;;;;;2.15;0.40;;;;;;;19.99;100.00;100062.00;5014201;28;19944;-51
2021/09/13 12:30:34;;;;;;;0.77;0.35;;;;;;;20.20;100.00;100057.31;5013436;28;20069;-50
2021/09/13 12:33:39;;;;;;;0.65;0.22;;;;;;;20.33;100.00;100055.31;5014460;28;20060;-50
2021/09/13 12:36:42;;;;;;;0.63;0.40;;;;;;;20.26;100.00;100060.84;5011147;28;20057;-50
2021/09/13 12:40:13;;;;;;;0.70;0.43;;;;;;;20.19;100.00;100061.41;5014700;28;20040;-50
2021/09/13 12:43:22;;;;;;;0.75;0.17;;;;;;;21.17;100.00;100063.13;5002543;28;20044;-50
2021/09/13 12:46:25;;;;;;;1.38;0.95;;;;;;;20.42;100.00;100063.38;5014450;28;20092;-50
2021/09/13 12:49:29;;;;;;;1.23;0.38;;;;;;;20.58;100.00;100063.66;5014627;28;20090;-50
2021/09/13 12:52:46;;;;;;;0.20;0.20;;;;;;;21.43;100.00;100059.53;5013786;28;20044;-50
2021/09/13 12:55:50;;;;;;;3.40;0.88;;;;;;;21.32;100.00;100054.09;5014172;28;20092;-50
2021/09/13 12:59:17;;;;;;;4.45;0.90;;;;;;;20.72;100.00;100045.41;5014513;28;20623;-50
2021/09/13 13:02:23;;;;;;;2.35;0.70;;;;;;;20.53;100.00;100053.22;5013207;28;20047;-50
2021/09/13 13:05:34;;;;;;;2.53;0.52;;;;;;;20.85;100.00;100057.53;5013597;28;20084;-50
2021/09/13 13:08:38;;;;;;;1.38;0.45;;;;;;;20.52;100.00;100054.50;5014061;28;20068;-50
2021/09/13 13:11:41;;;;;;;2.22;0.68;;;;;;;20.68;100.00;100050.63;5014119;28;20532;-51
2021/09/13 13:14:45;;;;;;;1.63;0.38;;;;;;;20.79;100.00;100048.34;5013519;28;20048;-51
2021/09/13 13:17:50;;;;;;;0.65;0.28;;;;;;;20.89;100.00;100043.03;5013526;28;20052;-50
2021/09/13 13:20:54;;;;;;;3.45;0.50;;;;;;;20.74;100.00;100043.56;5014191;28;20091;-51
2021/09/13 13:24:05;;;;;;;1.65;0.52;;;;;;;21.14;100.00;100042.31;5009976;28;20366;-53
2021/09/13 13:27:10;;;;;;;0.82;0.45;;;;;;;21.01;100.00;100042.28;5007538;28;20056;-50
2021/09/13 13:30:17;;;;;;;2.58;0.45;;;;;;;20.67;100.00;100035.72;5004288;28;20084;-50
2021/09/13 13:33:21;;;;;;;1.27;0.25;;;;;;;20.59;100.00;100037.66;5008495;28;20141;-51
2021/09/13 13:36:25;;;;;;;1.75;0.80;;;;;;;21.10;100.00;100030.56;4995458;28;20045;-59
2021/09/13 13:39:28;;;;;;;1.30;0.22;;;;;;;20.89;100.00;100021.16;5014767;28;20052;-57
2021/09/13 13:42:31;;;;;;;1.45;0.30;;;;;;;20.64;100.00;100025.47;5006633;28;20532;-57
2021/09/13 13:45:35;;;;;;;3.38;1.20;;;;;;;21.28;100.00;100017.59;5012941;28;20544;-56
2021/09/13 13:48:38;;;;;;;1.05;0.50;;;;;;;21.50;100.00;100017.16;5023521;28;20184;-56
2021/09/13 13:51:41;;;;;;;1.45;0.85;;;;;;;21.64;100.00;100020.69;4992797;28;20076;-56
2021/09/13 13:54:46;;;;;;;4.55;0.40;;;;;;;21.77;100.00;100017.81;4998392;28;20064;-56
2021/09/13 13:57:48;;;;;;;2.00;0.73;;;;;;;21.65;100.00;100013.72;5007558;28;20100;-57
2021/09/13 14:00:53;;;;;;;7.32;0.45;;;;;;;22.11;100.00;100012.94;5013214;28;20122;-57
2021/09/13 14:03:55;;;;;;;2.05;0.40;;;;;;;22.54;100.00;100016.00;5012742;28;20045;-56
2021/09/13 14:07:00;;;;;;;1.45;0.30;;;;;;;22.56;100.00;100012.63;5023638;28;20087;-56
2021/09/13 14:10:06;;;;;;;2.85;0.30;;;;;;;22.57;100.00;99995.03;5020899;28;20049;-57
2021/09/13 14:13:09;;;;;;;2.22;0.30;;;;;;;22.89;100.00;99993.97;5022344;28;20115;-55
2021/09/13 14:16:12;;;;;;;0.30;0.10;;;;;;;22.68;100.00;99999.66;5016911;28;20080;-55